createdAt,value
2023-02-28T00:00:22.018Z,20.10
2023-02-28T00:02:24.448Z,20.10
2023-02-28T00:04:26.957Z,19.98
2023-02-28T00:06:29.544Z,21.83
2023-02-28T00:08:32.088Z,21.50
2023-02-28T00:10:34.660Z,21.90
2023-02-28T00:12:37.529Z,20.52
2023-02-28T00:14:39.944Z,20.33
2023-02-28T00:16:42.425Z,19.67
2023-02-28T00:18:44.839Z,19.80
2023-02-28T00:20:47.267Z,17.77
2023-02-28T00:22:51.780Z,20.00
2023-02-28T00:24:54.160Z,19.13
2023-02-28T00:26:56.575Z,20.60
2023-02-28T00:28:59.030Z,19.00
2023-02-28T00:31:01.849Z,19.80
2023-02-28T00:33:04.264Z,18.70
2023-02-28T00:35:07.850Z,19.17
2023-02-28T00:37:11.645Z,18.92
2023-02-28T00:39:14.062Z,19.23
2023-02-28T00:41:16.464Z,19.43
2023-02-28T00:43:18.905Z,19.17
2023-02-28T00:45:23.821Z,20.75
2023-02-28T00:47:26.526Z,20.67
2023-02-28T00:49:29.173Z,18.80
2023-02-28T00:51:31.589Z,19.57
2023-02-28T00:53:34.271Z,19.63
2023-02-28T00:55:36.705Z,20.33
2023-02-28T00:57:39.191Z,20.15
2023-02-28T00:59:41.541Z,20.50
2023-02-28T01:01:45.469Z,18.57
2023-02-28T01:03:47.946Z,18.60
2023-02-28T01:05:50.678Z,17.67
2023-02-28T01:07:53.125Z,19.25
2023-02-28T01:09:55.538Z,18.42
2023-02-28T01:11:58.013Z,19.60
2023-02-28T01:14:01.210Z,18.45
2023-02-28T01:16:03.825Z,19.83
2023-02-28T01:18:06.343Z,18.55
2023-02-28T01:20:09.324Z,18.05
2023-02-28T01:22:11.871Z,20.63
2023-02-28T01:24:14.301Z,21.38
2023-02-28T01:26:26.220Z,19.05
2023-02-28T01:28:28.663Z,17.80
2023-02-28T01:30:31.437Z,17.65
2023-02-28T01:32:33.872Z,18.17
2023-02-28T01:34:36.282Z,18.17
2023-02-28T01:36:38.629Z,18.75
2023-02-28T01:38:41.746Z,18.13
2023-02-28T01:40:44.127Z,19.38
2023-02-28T01:42:46.502Z,17.80
2023-02-28T01:45:00.660Z,18.27
2023-02-28T01:47:03.069Z,18.25
2023-02-28T01:49:17.463Z,17.92
2023-02-28T01:51:32.946Z,19.08
2023-02-28T01:53:42.429Z,18.37
2023-02-28T01:55:48.452Z,17.73
2023-02-28T01:57:53.485Z,17.45
2023-02-28T02:00:00.537Z,18.08
2023-02-28T02:02:03.675Z,18.42
2023-02-28T02:04:06.278Z,17.70
2023-02-28T02:06:08.691Z,16.95
2023-02-28T02:08:14.112Z,18.65
2023-02-28T02:10:23.352Z,17.75
2023-02-28T02:12:30.832Z,18.73
2023-02-28T02:14:54.149Z,17.07
2023-02-28T02:17:12.809Z,17.10
2023-02-28T02:19:42.139Z,18.33
2023-02-28T02:21:56.524Z,22.40
2023-02-28T02:23:58.950Z,22.70
2023-02-28T02:26:16.386Z,21.50
2023-02-28T02:28:40.563Z,19.48
2023-02-28T02:30:57.968Z,19.45
2023-02-28T02:33:06.425Z,18.02
2023-02-28T02:35:16.190Z,17.60
2023-02-28T02:37:32.287Z,18.63
2023-02-28T02:39:51.971Z,18.42
2023-02-28T02:41:55.327Z,17.52
2023-02-28T02:44:32.383Z,16.92
2023-02-28T02:46:38.590Z,16.20
2023-02-28T02:48:42.882Z,16.40
2023-02-28T02:50:49.109Z,17.90
2023-02-28T02:52:56.609Z,16.80
2023-02-28T02:55:00.213Z,17.88
2023-02-28T02:57:05.501Z,17.60
2023-02-28T02:59:10.812Z,18.17
2023-02-28T03:01:17.504Z,18.55
2023-02-28T03:03:29.714Z,18.80
2023-02-28T03:05:37.577Z,18.20
2023-02-28T03:07:40.503Z,18.50
2023-02-28T03:09:50.801Z,17.80
2023-02-28T03:11:55.162Z,16.73
2023-02-28T03:14:18.681Z,18.23
2023-02-28T03:16:48.500Z,17.88
2023-02-28T03:19:02.365Z,17.77
2023-02-28T03:21:23.331Z,18.13
2023-02-28T03:23:49.734Z,17.17
2023-02-28T03:25:52.034Z,17.80
2023-02-28T03:28:18.034Z,18.25
2023-02-28T03:30:47.746Z,18.30
2023-02-28T03:33:17.231Z,17.20
2023-02-28T03:35:23.001Z,16.73
2023-02-28T03:37:26.993Z,18.58
2023-02-28T03:39:34.350Z,19.02
2023-02-28T03:41:48.789Z,18.60
2023-02-28T03:43:56.466Z,17.53
2023-02-28T03:46:01.236Z,18.58
2023-02-28T03:48:27.676Z,18.67
2023-02-28T03:50:40.783Z,17.02
2023-02-28T03:53:06.679Z,18.35
2023-02-28T03:55:12.003Z,16.80
2023-02-28T03:57:17.170Z,18.38
2023-02-28T03:59:30.415Z,18.90
2023-02-28T04:01:39.064Z,16.50
2023-02-28T04:03:41.664Z,17.27
2023-02-28T04:05:56.281Z,17.43
2023-02-28T04:08:08.981Z,18.63
2023-02-28T04:10:12.607Z,17.63
2023-02-28T04:12:14.960Z,18.83
2023-02-28T04:14:17.339Z,18.92
2023-02-28T04:16:33.917Z,19.23
2023-02-28T04:18:37.158Z,19.60
2023-02-28T04:20:39.573Z,19.38
2023-02-28T04:22:41.981Z,20.10
2023-02-28T04:24:44.553Z,21.08
2023-02-28T04:26:49.065Z,20.17
2023-02-28T04:28:51.481Z,19.45
2023-02-28T04:31:04.923Z,20.08
2023-02-28T04:33:07.475Z,19.23
2023-02-28T04:35:12.290Z,19.73
2023-02-28T04:37:14.936Z,22.10
2023-02-28T04:39:19.430Z,23.83
2023-02-28T04:41:22.377Z,24.90
2023-02-28T04:43:24.768Z,22.60
2023-02-28T04:45:27.188Z,20.45
2023-02-28T04:47:29.637Z,19.03
2023-02-28T04:49:32.146Z,17.92
2023-02-28T04:51:34.578Z,20.13
2023-02-28T04:53:38.527Z,19.70
2023-02-28T04:55:41.135Z,20.70
2023-02-28T04:57:43.695Z,19.60
2023-02-28T04:59:46.097Z,19.77
2023-02-28T05:01:49.840Z,20.98
2023-02-28T05:03:53.640Z,20.75
2023-02-28T05:05:56.038Z,19.92
2023-02-28T05:07:58.444Z,19.73
2023-02-28T05:10:00.843Z,21.40
2023-02-28T05:12:03.416Z,20.27
2023-02-28T05:14:16.216Z,19.52
2023-02-28T05:16:20.031Z,20.00
2023-02-28T05:18:22.655Z,20.30
2023-02-28T05:20:25.155Z,19.67
2023-02-28T05:22:27.645Z,19.65
2023-02-28T05:24:30.353Z,20.40
2023-02-28T05:26:36.038Z,20.77
2023-02-28T05:28:38.480Z,20.83
2023-02-28T05:30:41.108Z,19.52
2023-02-28T05:32:44.068Z,19.83
2023-02-28T05:34:46.526Z,19.50
2023-02-28T05:36:48.921Z,19.42
2023-02-28T05:38:52.106Z,19.33
2023-02-28T05:40:54.599Z,19.38
2023-02-28T05:42:57.084Z,19.40
2023-02-28T05:45:00.045Z,20.70
2023-02-28T05:47:02.501Z,19.70
2023-02-28T05:49:05.522Z,18.43
2023-02-28T05:51:09.244Z,19.15
2023-02-28T05:53:11.721Z,20.98
2023-02-28T05:55:14.088Z,19.60
2023-02-28T05:57:24.441Z,20.65
2023-02-28T05:59:27.322Z,20.43
2023-02-28T06:01:38.810Z,21.02
2023-02-28T06:03:41.235Z,24.33
2023-02-28T06:05:43.730Z,22.60
2023-02-28T06:07:46.223Z,20.92
2023-02-28T06:09:48.720Z,23.27
2023-02-28T06:11:51.110Z,26.23
2023-02-28T06:13:56.499Z,24.35
2023-02-28T06:16:01.771Z,21.90
2023-02-28T06:18:04.276Z,20.30
2023-02-28T06:20:08.216Z,21.40
2023-02-28T06:22:10.726Z,21.90
2023-02-28T06:24:13.271Z,22.60
2023-02-28T06:26:15.889Z,19.73
2023-02-28T06:28:18.358Z,21.67
2023-02-28T06:30:25.794Z,21.63
2023-02-28T06:32:28.209Z,21.13
2023-02-28T06:34:30.653Z,19.90
2023-02-28T06:36:33.107Z,19.08
2023-02-28T06:38:35.938Z,18.17
2023-02-28T06:40:38.378Z,18.50
2023-02-28T06:42:40.787Z,20.20
2023-02-28T06:44:44.071Z,20.70
2023-02-28T06:46:47.005Z,20.98
2023-02-28T06:48:49.641Z,21.20
2023-02-28T06:50:53.589Z,20.80
2023-02-28T06:52:56.652Z,21.23
2023-02-28T06:55:01.830Z,24.08
2023-02-28T06:57:04.273Z,21.13
2023-02-28T06:59:07.059Z,20.92
2023-02-28T07:01:10.186Z,22.47
2023-02-28T07:03:13.582Z,19.60
2023-02-28T07:05:16.127Z,20.50
2023-02-28T07:07:18.667Z,20.55
2023-02-28T07:09:21.186Z,20.95
2023-02-28T07:11:26.780Z,20.07
2023-02-28T07:13:29.639Z,20.00
2023-02-28T07:15:32.160Z,20.65
2023-02-28T07:17:34.551Z,21.08
2023-02-28T07:19:37.035Z,21.60
2023-02-28T07:21:39.499Z,21.17
2023-02-28T07:23:42.853Z,21.08
2023-02-28T07:25:46.616Z,20.00
2023-02-28T07:27:49.037Z,21.10
2023-02-28T07:29:52.437Z,21.15
2023-02-28T07:31:54.903Z,20.47
2023-02-28T07:33:57.541Z,21.45
2023-02-28T07:36:17.118Z,24.30
2023-02-28T07:38:19.595Z,20.42
2023-02-28T07:40:22.473Z,20.80
2023-02-28T07:42:24.922Z,19.60
2023-02-28T07:44:28.385Z,18.95
2023-02-28T07:46:36.654Z,19.27
2023-02-28T07:48:39.723Z,20.55
2023-02-28T07:50:42.223Z,18.55
2023-02-28T07:52:44.892Z,17.77
2023-02-28T07:54:47.274Z,15.80
2023-02-28T07:56:49.746Z,18.40
2023-02-28T07:58:52.111Z,16.15
2023-02-28T08:00:54.754Z,16.95
2023-02-28T08:02:57.202Z,17.00
2023-02-28T08:05:00.667Z,20.30
2023-02-28T08:07:03.342Z,16.55
2023-02-28T08:09:05.885Z,16.85
2023-02-28T08:11:08.321Z,18.30
2023-02-28T08:13:10.747Z,16.70
2023-02-28T08:15:13.326Z,17.17
2023-02-28T08:17:15.864Z,16.83
2023-02-28T08:19:18.297Z,15.15
2023-02-28T08:21:21.859Z,16.08
2023-02-28T08:23:24.339Z,15.07
2023-02-28T08:25:26.755Z,18.40
2023-02-28T08:27:29.211Z,19.10
2023-02-28T08:29:31.858Z,19.67
2023-02-28T08:31:36.559Z,20.27
2023-02-28T08:33:40.207Z,15.93
2023-02-28T08:35:42.703Z,14.57
2023-02-28T08:37:45.275Z,15.35
2023-02-28T08:39:47.784Z,16.70
2023-02-28T08:42:02.113Z,16.58
2023-02-28T08:44:09.382Z,15.70
2023-02-28T08:46:15.007Z,15.52
2023-02-28T08:48:19.587Z,16.35
2023-02-28T08:50:22.287Z,17.55
2023-02-28T08:52:24.802Z,16.77
2023-02-28T08:54:27.316Z,17.03
2023-02-28T08:56:30.355Z,18.33
2023-02-28T08:58:32.973Z,17.80
2023-02-28T09:00:35.366Z,18.85
2023-02-28T09:02:38.210Z,19.40
2023-02-28T09:04:40.965Z,17.90
2023-02-28T09:06:43.477Z,24.85
2023-02-28T09:08:46.271Z,21.50
2023-02-28T09:10:48.797Z,18.70
2023-02-28T09:12:51.253Z,17.63
2023-02-28T09:14:54.456Z,18.90
2023-02-28T09:16:57.008Z,19.70
2023-02-28T09:18:59.545Z,18.63
2023-02-28T09:21:05.857Z,17.83
2023-02-28T09:23:09.309Z,18.30
2023-02-28T09:25:11.670Z,19.47
2023-02-28T09:27:14.069Z,17.48
2023-02-28T09:29:17.816Z,20.20
2023-02-28T09:31:23.044Z,18.08
2023-02-28T09:33:25.572Z,18.92
2023-02-28T09:35:27.990Z,17.73
2023-02-28T09:37:31.936Z,20.10
2023-02-28T09:39:34.439Z,19.50
2023-02-28T09:41:51.938Z,17.98
2023-02-28T09:43:57.842Z,18.42
2023-02-28T09:46:35.770Z,21.60
2023-02-28T09:48:43.916Z,17.48
2023-02-28T09:51:11.102Z,18.88
2023-02-28T09:53:24.788Z,19.23
2023-02-28T09:55:46.546Z,22.50
2023-02-28T09:57:49.216Z,23.77
2023-02-28T09:59:57.784Z,29.77
2023-02-28T10:02:12.547Z,26.48
2023-02-28T10:04:21.155Z,27.83
2023-02-28T10:06:27.645Z,20.52
2023-02-28T10:08:48.556Z,20.37
2023-02-28T10:10:56.744Z,24.27
2023-02-28T10:13:01.481Z,22.73
2023-02-28T10:15:06.021Z,24.50
2023-02-28T10:17:49.459Z,21.55
2023-02-28T10:20:14.556Z,20.67
2023-02-28T10:22:23.841Z,24.38
2023-02-28T10:24:46.148Z,22.63
2023-02-28T10:26:49.715Z,22.05
2023-02-28T10:28:53.488Z,20.13
2023-02-28T10:30:56.473Z,20.03
2023-02-28T10:32:58.960Z,21.75
2023-02-28T10:35:02.691Z,23.23
2023-02-28T10:37:08.581Z,24.83
2023-02-28T10:39:40.348Z,22.73
2023-02-28T10:41:44.833Z,25.27
2023-02-28T10:43:47.327Z,22.92
2023-02-28T10:46:05.506Z,22.10
2023-02-28T10:48:13.656Z,21.00
2023-02-28T10:50:48.246Z,23.65
2023-02-28T10:52:50.681Z,27.10
2023-02-28T10:55:23.422Z,28.73
2023-02-28T10:57:26.022Z,20.52
2023-02-28T10:59:32.988Z,23.83
2023-02-28T11:01:42.381Z,28.00
2023-02-28T11:03:44.947Z,24.70
2023-02-28T11:05:47.788Z,34.85
2023-02-28T11:07:55.287Z,28.45
2023-02-28T11:09:59.060Z,27.15
2023-02-28T11:12:02.289Z,26.85
2023-02-28T11:14:06.360Z,25.50
2023-02-28T11:16:11.819Z,27.45
2023-02-28T11:18:14.209Z,23.58
2023-02-28T11:20:24.501Z,25.20
2023-02-28T11:22:32.600Z,28.52
2023-02-28T11:24:43.272Z,21.90
2023-02-28T11:26:49.740Z,24.10
2023-02-28T11:29:10.123Z,24.15
2023-02-28T11:31:17.190Z,22.15
2023-02-28T11:33:33.116Z,21.95
2023-02-28T11:35:39.681Z,20.83
2023-02-28T11:37:42.680Z,22.02
2023-02-28T11:39:46.062Z,23.02
2023-02-28T11:42:04.970Z,20.58
2023-02-28T11:44:22.493Z,30.45
2023-02-28T11:46:30.523Z,22.87
2023-02-28T11:48:35.945Z,21.67
2023-02-28T11:51:00.224Z,22.33
2023-02-28T11:53:08.020Z,18.70
2023-02-28T11:55:26.468Z,20.17
2023-02-28T11:57:31.931Z,23.33
2023-02-28T12:00:05.958Z,22.15
2023-02-28T12:02:22.331Z,24.35
2023-02-28T12:04:27.021Z,22.42
2023-02-28T12:06:55.223Z,21.63
2023-02-28T12:09:01.604Z,19.70
2023-02-28T12:11:12.801Z,21.05
2023-02-28T12:13:35.134Z,22.63
2023-02-28T12:15:58.598Z,24.20
2023-02-28T12:18:29.278Z,24.35
2023-02-28T12:20:46.989Z,25.43
2023-02-28T12:23:01.305Z,24.52
2023-02-28T12:25:26.334Z,23.55
2023-02-28T12:27:32.381Z,23.08
2023-02-28T12:29:51.453Z,24.38
2023-02-28T12:31:58.589Z,24.77
2023-02-28T12:34:15.757Z,23.80
2023-02-28T12:36:23.039Z,22.95
2023-02-28T12:38:29.098Z,25.88
2023-02-28T12:40:44.859Z,22.67
2023-02-28T12:42:50.622Z,21.77
2023-02-28T12:45:14.286Z,21.90
2023-02-28T12:47:19.056Z,22.50
2023-02-28T12:49:28.036Z,24.38
2023-02-28T12:51:31.086Z,21.75
2023-02-28T12:53:40.550Z,20.77
2023-02-28T12:55:45.937Z,23.35
2023-02-28T12:57:54.086Z,24.52
2023-02-28T13:00:00.141Z,24.10
2023-02-28T13:02:21.686Z,23.23
2023-02-28T13:04:36.192Z,21.00
2023-02-28T13:07:06.233Z,24.05
2023-02-28T13:09:13.612Z,25.13
2023-02-28T13:11:30.590Z,17.98
2023-02-28T13:13:33.368Z,23.42
2023-02-28T13:15:41.551Z,22.80
2023-02-28T13:17:44.104Z,24.58
2023-02-28T13:20:17.543Z,25.40
2023-02-28T13:22:41.263Z,23.40
2023-02-28T13:24:47.602Z,25.65
2023-02-28T13:26:53.169Z,24.40
2023-02-28T13:29:12.516Z,23.13
2023-02-28T13:31:15.495Z,24.13
2023-02-28T13:33:45.323Z,24.17
2023-02-28T13:35:48.194Z,22.00
2023-02-28T13:37:51.632Z,23.07
2023-02-28T13:40:00.420Z,22.77
2023-02-28T13:42:31.897Z,23.48
2023-02-28T13:45:02.933Z,24.52
2023-02-28T13:47:05.270Z,26.13
2023-02-28T13:49:37.471Z,24.03
2023-02-28T13:51:46.745Z,21.73
2023-02-28T13:54:07.700Z,21.27
2023-02-28T13:56:25.958Z,20.95
2023-02-28T13:58:47.137Z,21.83
2023-02-28T14:01:08.263Z,23.63
2023-02-28T14:03:15.981Z,22.33
2023-02-28T14:05:26.707Z,22.00
2023-02-28T14:07:40.030Z,22.10
2023-02-28T14:09:50.390Z,23.85
2023-02-28T14:11:53.190Z,24.87
2023-02-28T14:13:55.671Z,24.13
2023-02-28T14:16:05.370Z,25.08
2023-02-28T14:18:21.253Z,20.85
2023-02-28T14:20:26.206Z,20.80
2023-02-28T14:22:51.749Z,21.83
2023-02-28T14:25:45.225Z,20.50
2023-02-28T14:28:10.105Z,21.30
2023-02-28T14:30:33.152Z,19.20
2023-02-28T14:32:46.692Z,18.80
2023-02-28T14:35:03.927Z,19.90
2023-02-28T14:37:09.016Z,20.65
2023-02-28T14:39:20.461Z,21.05
2023-02-28T14:41:27.693Z,19.30
2023-02-28T14:43:30.923Z,18.10
2023-02-28T14:45:37.136Z,18.83
2023-02-28T14:47:39.637Z,20.02
2023-02-28T14:49:49.432Z,20.75
2023-02-28T14:52:02.705Z,20.27
2023-02-28T14:54:05.665Z,20.17
2023-02-28T14:56:18.224Z,19.37
2023-02-28T14:58:31.922Z,20.40
2023-02-28T15:00:38.229Z,20.10
2023-02-28T15:02:42.477Z,20.23
2023-02-28T15:04:45.289Z,21.98
2023-02-28T15:06:48.227Z,20.37
2023-02-28T15:09:09.245Z,20.63
2023-02-28T15:11:23.379Z,22.02
2023-02-28T15:13:35.886Z,22.05
2023-02-28T15:16:02.414Z,22.88
2023-02-28T15:18:37.663Z,20.48
2023-02-28T15:20:41.234Z,20.48
2023-02-28T15:22:44.119Z,19.05
2023-02-28T15:24:48.003Z,21.80
2023-02-28T15:26:54.582Z,22.67
2023-02-28T15:29:07.670Z,22.88
2023-02-28T15:31:24.806Z,22.38
2023-02-28T15:33:36.393Z,20.92
2023-02-28T15:35:39.394Z,22.23
2023-02-28T15:37:56.904Z,21.63
2023-02-28T15:40:14.601Z,20.48
2023-02-28T15:42:25.129Z,19.92
2023-02-28T15:44:30.917Z,23.10
2023-02-28T15:46:33.370Z,24.38
2023-02-28T15:48:49.066Z,23.40
2023-02-28T15:51:02.500Z,21.77
2023-02-28T15:53:04.935Z,23.58
2023-02-28T15:55:27.976Z,23.88
2023-02-28T15:57:31.214Z,24.23
2023-02-28T15:59:34.049Z,24.03
2023-02-28T16:01:40.549Z,23.60
2023-02-28T16:03:52.227Z,20.70
2023-02-28T16:06:20.886Z,22.98
2023-02-28T16:08:23.287Z,21.90
2023-02-28T16:10:27.995Z,22.40
2023-02-28T16:12:38.016Z,21.35
2023-02-28T16:14:40.485Z,22.92
2023-02-28T16:16:52.840Z,20.52
2023-02-28T16:18:56.081Z,24.30
2023-02-28T16:20:58.597Z,22.80
2023-02-28T16:23:02.625Z,23.63
2023-02-28T16:25:08.966Z,22.73
2023-02-28T16:27:26.310Z,23.42
2023-02-28T16:29:36.327Z,22.45
2023-02-28T16:31:39.767Z,21.43
2023-02-28T16:33:42.174Z,20.45
2023-02-28T16:35:44.605Z,21.27
2023-02-28T16:37:47.480Z,20.83
2023-02-28T16:39:52.262Z,23.02
2023-02-28T16:41:54.750Z,18.97
2023-02-28T16:44:01.023Z,21.58
2023-02-28T16:46:04.800Z,20.52
2023-02-28T16:48:08.819Z,20.40
2023-02-28T16:50:31.258Z,20.80
2023-02-28T16:52:33.674Z,20.70
2023-02-28T16:54:36.099Z,23.55
2023-02-28T16:56:41.511Z,24.08
2023-02-28T16:58:44.080Z,20.08
2023-02-28T17:00:46.613Z,21.67
2023-02-28T17:02:49.244Z,21.33
2023-02-28T17:04:51.694Z,20.90
2023-02-28T17:06:54.292Z,22.63
2023-02-28T17:08:57.694Z,22.60
2023-02-28T17:11:00.927Z,25.40
2023-02-28T17:13:14.534Z,22.80
2023-02-28T17:15:19.223Z,21.92
2023-02-28T17:17:23.157Z,21.52
2023-02-28T17:19:25.651Z,20.08
2023-02-28T17:21:28.323Z,23.55
2023-02-28T17:23:30.727Z,21.50
2023-02-28T17:25:33.184Z,25.65
2023-02-28T17:27:35.796Z,21.20
2023-02-28T17:29:38.255Z,20.48
2023-02-28T17:31:41.423Z,20.27
2023-02-28T17:33:44.026Z,21.03
2023-02-28T17:35:46.434Z,20.20
2023-02-28T17:37:48.970Z,21.30
2023-02-28T17:39:51.359Z,20.83
2023-02-28T17:41:54.663Z,21.52
2023-02-28T17:43:57.554Z,23.47
2023-02-28T17:46:00.127Z,20.95
2023-02-28T17:48:02.606Z,22.85
2023-02-28T17:50:05.362Z,22.73
2023-02-28T17:52:08.021Z,22.25
2023-02-28T17:54:10.456Z,22.77
2023-02-28T17:56:22.025Z,24.20
2023-02-28T17:58:24.554Z,24.52
2023-02-28T18:00:27.081Z,22.25
2023-02-28T18:02:29.854Z,24.63
2023-02-28T18:04:32.269Z,23.53
2023-02-28T18:06:50.849Z,22.58
2023-02-28T18:08:53.930Z,23.40
2023-02-28T18:10:56.309Z,24.30
2023-02-28T18:12:59.318Z,24.25
2023-02-28T18:15:01.861Z,24.53
2023-02-28T18:17:04.420Z,23.30
2023-02-28T18:19:07.231Z,27.88
2023-02-28T18:21:11.713Z,24.10
2023-02-28T18:23:14.170Z,22.88
2023-02-28T18:25:17.998Z,24.83
2023-02-28T18:27:20.423Z,23.63
2023-02-28T18:29:27.861Z,25.92
2023-02-28T18:31:32.497Z,24.10
2023-02-28T18:33:35.130Z,22.67
2023-02-28T18:35:37.714Z,22.77
2023-02-28T18:37:40.189Z,22.10
2023-02-28T18:39:43.010Z,22.67
2023-02-28T18:41:45.616Z,21.13
2023-02-28T18:43:49.213Z,20.95
2023-02-28T18:45:51.948Z,22.67
2023-02-28T18:47:54.394Z,22.65
2023-02-28T18:49:56.786Z,23.10
2023-02-28T18:51:59.197Z,25.17
2023-02-28T18:54:01.611Z,22.83
2023-02-28T18:56:05.083Z,23.77
2023-02-28T18:58:07.736Z,22.02
2023-02-28T19:00:10.792Z,20.90
2023-02-28T19:02:13.259Z,21.52
2023-02-28T19:04:16.144Z,22.52
2023-02-28T19:06:19.795Z,21.23
2023-02-28T19:08:22.237Z,20.35
2023-02-28T19:10:24.813Z,20.42
2023-02-28T19:12:27.219Z,21.08
2023-02-28T19:14:29.838Z,21.95
2023-02-28T19:16:32.786Z,21.57
2023-02-28T19:18:35.742Z,20.52
2023-02-28T19:20:38.255Z,23.13
2023-02-28T19:22:41.183Z,21.55
2023-02-28T19:24:43.642Z,19.67
2023-02-28T19:26:46.142Z,19.53
2023-02-28T19:28:48.729Z,20.27
2023-02-28T19:30:53.119Z,21.40
2023-02-28T19:32:55.697Z,21.33
2023-02-28T19:34:58.165Z,20.75
2023-02-28T19:37:00.597Z,21.03
2023-02-28T19:39:03.328Z,20.75
2023-02-28T19:41:08.351Z,20.25
2023-02-28T19:43:10.985Z,21.00
2023-02-28T19:45:14.988Z,20.92
2023-02-28T19:47:17.479Z,21.40
2023-02-28T19:49:19.866Z,22.70
2023-02-28T19:51:23.145Z,21.42
2023-02-28T19:53:27.049Z,21.33
2023-02-28T19:55:29.613Z,22.15
2023-02-28T19:57:32.077Z,21.87
2023-02-28T19:59:39.260Z,22.38
2023-02-28T20:01:42.449Z,23.65
2023-02-28T20:03:49.213Z,23.70
2023-02-28T20:06:01.719Z,24.42
2023-02-28T20:08:05.111Z,20.87
2023-02-28T20:10:08.379Z,23.73
2023-02-28T20:12:23.227Z,26.33
2023-02-28T20:14:27.040Z,21.92
2023-02-28T20:16:31.244Z,22.02
2023-02-28T20:18:35.047Z,19.33
2023-02-28T20:20:37.755Z,20.23
2023-02-28T20:22:40.422Z,20.00
2023-02-28T20:24:43.576Z,20.23
2023-02-28T20:26:45.928Z,22.10
2023-02-28T20:28:48.371Z,19.47
2023-02-28T20:30:50.810Z,19.90
2023-02-28T20:32:53.231Z,21.40
2023-02-28T20:34:55.676Z,21.85
2023-02-28T20:36:58.910Z,21.50
2023-02-28T20:39:01.442Z,19.80
2023-02-28T20:41:04.469Z,18.98
2023-02-28T20:43:07.041Z,19.65
2023-02-28T20:45:10.063Z,20.45
2023-02-28T20:47:12.459Z,21.67
2023-02-28T20:49:15.846Z,21.93
2023-02-28T20:51:18.678Z,21.83
2023-02-28T20:53:21.581Z,21.30
2023-02-28T20:55:24.173Z,20.67
2023-02-28T20:57:29.814Z,21.70
2023-02-28T20:59:32.312Z,22.73
2023-02-28T21:01:34.851Z,24.20
2023-02-28T21:03:37.306Z,22.00
2023-02-28T21:05:39.850Z,23.65
2023-02-28T21:07:42.344Z,21.52
2023-02-28T21:09:44.751Z,22.13
2023-02-28T21:11:47.218Z,20.52
2023-02-28T21:13:51.399Z,22.58
2023-02-28T21:15:54.406Z,23.60
2023-02-28T21:17:56.983Z,23.08
2023-02-28T21:19:59.424Z,21.40
2023-02-28T21:22:01.851Z,23.42
2023-02-28T21:24:04.604Z,21.23
2023-02-28T21:26:08.967Z,21.58
2023-02-28T21:28:11.478Z,22.80
2023-02-28T21:30:14.097Z,26.23
2023-02-28T21:32:16.954Z,26.75
2023-02-28T21:34:19.743Z,24.83
2023-02-28T21:36:24.733Z,23.17
2023-02-28T21:38:27.271Z,21.73
2023-02-28T21:40:29.769Z,21.33
2023-02-28T21:42:32.410Z,23.58
2023-02-28T21:44:34.971Z,22.55
2023-02-28T21:46:37.497Z,23.30
2023-02-28T21:48:40.686Z,22.92
2023-02-28T21:50:43.174Z,21.00
2023-02-28T21:52:45.621Z,23.42
2023-02-28T21:54:48.842Z,24.33
2023-02-28T21:56:51.429Z,25.45
2023-02-28T21:59:00.806Z,22.58
2023-02-28T22:01:08.576Z,22.40
2023-02-28T22:03:11.101Z,21.58
2023-02-28T22:05:13.597Z,22.98
2023-02-28T22:07:18.327Z,23.27
2023-02-28T22:09:21.477Z,23.15
2023-02-28T22:11:25.240Z,23.53
2023-02-28T22:13:27.632Z,23.70
2023-02-28T22:15:31.768Z,23.08
2023-02-28T22:17:34.695Z,22.90
2023-02-28T22:19:37.519Z,24.55
2023-02-28T22:21:42.064Z,23.33
2023-02-28T22:23:45.525Z,23.30
2023-02-28T22:25:47.886Z,22.27
2023-02-28T22:27:50.371Z,24.13
2023-02-28T22:29:56.169Z,23.83
2023-02-28T22:31:58.682Z,24.03
2023-02-28T22:34:03.785Z,21.25
2023-02-28T22:36:07.480Z,23.00
2023-02-28T22:38:10.525Z,19.17
2023-02-28T22:40:13.496Z,23.65
2023-02-28T22:42:15.856Z,23.27
2023-02-28T22:44:18.274Z,22.95
2023-02-28T22:46:22.308Z,23.27
2023-02-28T22:48:24.735Z,23.20
2023-02-28T22:50:27.248Z,24.10
2023-02-28T22:52:31.724Z,21.53
2023-02-28T22:54:34.101Z,20.48
2023-02-28T22:56:36.646Z,22.10
2023-02-28T22:58:39.198Z,18.75
2023-02-28T23:00:41.750Z,21.00
2023-02-28T23:02:47.886Z,18.70
2023-02-28T23:04:50.274Z,16.83
2023-02-28T23:06:52.794Z,19.08
2023-02-28T23:08:58.798Z,21.30
2023-02-28T23:11:01.361Z,17.50
2023-02-28T23:13:03.818Z,20.27
2023-02-28T23:15:07.725Z,21.63
2023-02-28T23:17:10.545Z,24.65
2023-02-28T23:19:17.541Z,21.98
2023-02-28T23:21:19.975Z,20.33
2023-02-28T23:23:22.345Z,18.40
2023-02-28T23:25:24.762Z,20.20
2023-02-28T23:27:27.258Z,20.63
2023-02-28T23:29:30.328Z,19.95
2023-02-28T23:31:33.899Z,19.85
2023-02-28T23:33:36.379Z,18.93
2023-02-28T23:35:38.894Z,17.15
2023-02-28T23:37:41.657Z,17.60
2023-02-28T23:39:44.055Z,19.50
2023-02-28T23:41:47.058Z,20.25
2023-02-28T23:43:50.131Z,17.43
2023-02-28T23:45:58.678Z,19.38
2023-02-28T23:48:01.278Z,20.60
2023-02-28T23:50:04.674Z,19.58
2023-02-28T23:52:07.241Z,19.77
2023-02-28T23:54:10.089Z,18.40
2023-02-28T23:56:14.911Z,19.42
2023-02-28T23:58:17.267Z,20.48
